Home > Products > Valid Products > TAF

000
FTUS45 KMSO 282331
TAFSMN
TAF
KSMN 282331Z 2900/2924 33012KT P6SM SCT100
     FM290300 18010KT P6SM SCT200
     FM290600 VRB03KT P6SM SCT250
      AMD LTD TO CLD VIS AND WIND=



000
FTUS45 KMSO 282331
TAFGPI
TAF
KGPI 282331Z 2900/2924 23015G25KT P6SM -SHRA OVC060
     FM290200 VRB06KT P6SM BKN100
     FM292100 19012KT P6SM OVC050=



000
FTUS45 KMSO 282331
TAFGPI
TAF
KGPI 282331Z 2900/2924 23015G25KT P6SM -SHRA OVC060
     FM290200 VRB06KT P6SM BKN100
     FM292100 19012KT P6SM OVC050=



000
FTUS45 KMSO 282331
TAFMSO
TAF
KMSO 282331Z 2900/2924 27015G25KT P6SM VCSH BKN060
     FM290200 30010KT P6SM SCT200=



000
FTUS45 KMSO 282331
TAFBTM
TAF
KBTM 282331Z 2900/2924 28020G30KT P6SM VCSH SCT050 BKN080
     FM290300 31008KT P6SM SCT080 BKN150
     FM292100 28012KT P6SM BKN250=



000
FTUS45 KMSO 282331
TAFSMN
TAF
KSMN 282331Z 2900/2924 33012KT P6SM SCT100
     FM290300 18010KT P6SM SCT200
     FM290600 VRB03KT P6SM SCT250
      AMD LTD TO CLD VIS AND WIND=



000
FTUS45 KMSO 282331
TAFMSO
TAF
KMSO 282331Z 2900/2924 27015G25KT P6SM VCSH BKN060
     FM290200 30010KT P6SM SCT200=



000
FTUS45 KMSO 282331
TAFBTM
TAF
KBTM 282331Z 2900/2924 28020G30KT P6SM VCSH SCT050 BKN080
     FM290300 31008KT P6SM SCT080 BKN150
     FM292100 28012KT P6SM BKN250=



000
FTUS45 KMSO 282206 AAA
TAFBTM
TAF AMD
KBTM 282206Z 2822/2918 28020G30KT P6SM VCSH SCT050 BKN080
     FM290300 31008KT P6SM SKC=



000
FTUS45 KMSO 282206 AAB
TAFGPI
TAF AMD
KGPI 282206Z 2822/2918 23015G25KT P6SM -SHRA OVC060
     FM290100 19008KT P6SM SCT200=



000
FTUS45 KMSO 282206 AAB
TAFGPI
TAF AMD
KGPI 282206Z 2822/2918 23015G25KT P6SM -SHRA OVC060
     FM290100 19008KT P6SM SCT200=



000
FTUS45 KMSO 282205 AAA
TAFGPI
TAF AMD
KGPI 282205Z 2822/2918 23015G25KT P6SM -SHRA OVC030
     FM290100 19008KT P6SM SCT200=



000
FTUS45 KMSO 282205 AAA
TAFGPI
TAF AMD
KGPI 282205Z 2822/2918 23015G25KT P6SM -SHRA OVC030
     FM290100 19008KT P6SM SCT200=



000
FTUS45 KMSO 282001 AAA
TAFSMN
TAF AMD
KSMN 282001Z 2820/2918 18005KT P6SM BKN080
     FM282200 31009KT P6SM SCT080
     FM290300 18010KT P6SM SCT200
      AMD LTD TO CLD VIS AND WIND=



000
FTUS45 KMSO 281720
TAFGPI
TAF
KGPI 281720Z 2818/2918 19015G25KT P6SM -SHRA OVC040
      TEMPO 2818/2821 23020G30KT P6SM -SHRA OVC030
     FM290100 19008KT P6SM SCT200=



000
FTUS45 KMSO 281720
TAFSMN
TAF
KSMN 281720Z 2818/2918 21008KT P6SM VCSH OVC045
     FM282000 31015G25KT P6SM VCSH BKN050
     FM290300 18010KT P6SM SCT200
      AMD LTD TO CLD VIS AND WIND=



000
FTUS45 KMSO 281720
TAFBTM
TAF
KBTM 281720Z 2818/2918 31025G35KT P6SM VCSH SCT030 BKN050
     FM290300 31008KT P6SM SKC=



000
FTUS45 KMSO 281720
TAFMSO
TAF
KMSO 281720Z 2818/2918 27025G35KT P6SM VCSH BKN050
     FM290000 30015G25KT P6SM BKN100
     FM290200 30010KT P6SM SCT200=



000
FTUS45 KMSO 281720
TAFGPI
TAF
KGPI 281720Z 2818/2918 19015G25KT P6SM -SHRA OVC040
      TEMPO 2818/2821 23020G30KT P6SM -SHRA OVC030
     FM290100 19008KT P6SM SCT200=



000
FTUS45 KMSO 281720
TAFSMN
TAF
KSMN 281720Z 2818/2918 21008KT P6SM VCSH OVC045
     FM282000 31015G25KT P6SM VCSH BKN050
     FM290300 18010KT P6SM SCT200
      AMD LTD TO CLD VIS AND WIND=



000
FTUS45 KMSO 281720
TAFBTM
TAF
KBTM 281720Z 2818/2918 31025G35KT P6SM VCSH SCT030 BKN050
     FM290300 31008KT P6SM SKC=



000
FTUS45 KMSO 281720
TAFMSO
TAF
KMSO 281720Z 2818/2918 27025G35KT P6SM VCSH BKN050
     FM290000 30015G25KT P6SM BKN100
     FM290200 30010KT P6SM SCT200=



000
FTUS45 KMSO 281520 AAA
TAFSMN
TAF AMD
KSMN 281520Z 2815/2912 31010KT P6SM VCSH SCT050 BKN070
     FM281700 32015G25KT P6SM VCSH SCT050
     FM290300 18010KT P6SM SCT200
      AMD LTD TO CLD VIS AND WIND=



000
FTUS45 KMSO 281520 AAA
TAFSMN
TAF AMD
KSMN 281520Z 2815/2912 31010KT P6SM VCSH SCT050 BKN070
     FM281700 32015G25KT P6SM VCSH SCT050
     FM290300 18010KT P6SM SCT200
      AMD LTD TO CLD VIS AND WIND=



000
FTUS45 KMSO 281508 AAA
TAFGPI
TAF AMD
KGPI 281508Z 2815/2912 19013KT P6SM -SHRA OVC050
     FM281700 24018G28KT P6SM SCT040
     FM290100 19008KT P6SM SCT200=



000
FTUS45 KMSO 281506 AAB
TAFMSO
TAF AMD
KMSO 281506Z 2815/2912 28015G25KT P6SM VCSH OVC050
     FM282000 28025G35KT P6SM BKN050
     FM290000 30015G25KT P6SM BKN100
     FM290200 30010KT P6SM SCT200=



000
FTUS45 KMSO 281503 AAA
TAFBTM
TAF AMD
KBTM 281503Z 2815/2912 30010KT P6SM OVC100
     FM281525 30025G35KT P6SM VCSH BKN050
     FM281800 30025G35KT P6SM SCT050 BKN070
     FM290300 31010KT P6SM SKC=



000
FTUS45 KMSO 281121
TAFBTM
TAF
KBTM 281121Z 2812/2912 26010KT P6SM FEW080
     FM281700 29025G35KT P6SM BKN050
     FM290300 31010KT P6SM SKC=



000
FTUS45 KMSO 281121
TAFMSO
TAF
KMSO 281121Z 2812/2912 29010KT 6SM -SHRA OVC050
     FM281600 28022G32KT P6SM SCT050
     FM290200 30010KT P6SM SCT200=



000
FTUS45 KMSO 281121
TAFGPI
TAF
KGPI 281121Z 2812/2912 26010KT 6SM -SHRA OVC050
     FM281600 25018G28KT P6SM SCT040
     FM290100 19008KT P6SM SCT200=



000
FTUS45 KMSO 281121
TAFSMN
TAF
KSMN 281121Z 2812/2912 20005KT P6SM SKC
     FM281700 32015G25KT P6SM VCSH SCT050
     FM290300 18010KT P6SM SCT200
      AMD LTD TO CLD VIS AND WIND=



000
FTUS45 KMSO 281121
TAFSMN
TAF
KSMN 281121Z 2812/2912 20005KT P6SM SKC
     FM281700 32015G25KT P6SM VCSH SCT050
     FM290300 18010KT P6SM SCT200
      AMD LTD TO CLD VIS AND WIND=



000
FTUS45 KMSO 281121
TAFBTM
TAF
KBTM 281121Z 2812/2912 26010KT P6SM FEW080
     FM281700 29025G35KT P6SM BKN050
     FM290300 31010KT P6SM SKC=



000
FTUS45 KMSO 281121
TAFGPI
TAF
KGPI 281121Z 2812/2912 26010KT 6SM -SHRA OVC050
     FM281600 25018G28KT P6SM SCT040
     FM290100 19008KT P6SM SCT200=



000
FTUS45 KMSO 281121
TAFMSO
TAF
KMSO 281121Z 2812/2912 29010KT 6SM -SHRA OVC050
     FM281600 28022G32KT P6SM SCT050
     FM290200 30010KT P6SM SCT200=



000
FTUS45 KMSO 281105 AAB
TAFMSO
TAF AMD
KMSO 281105Z 2811/2906 VRB03KT P6SM SCT080
     FM281200 28010KT 6SM -SHRA OVC040
     FM281500 28022G32KT P6SM SCT040
     FM290200 30010KT P6SM SCT200=



000
FTUS45 KMSO 281105 AAB
TAFMSO
TAF AMD
KMSO 281105Z 2811/2906 VRB03KT P6SM SCT080
     FM281200 28010KT 6SM -SHRA OVC040
     FM281500 28022G32KT P6SM SCT040
     FM290200 30010KT P6SM SCT200=



000
FTUS45 KMSO 280752 AAA
TAFGPI
TAF AMD
KGPI 280752Z 2808/2906 VRB03KT P6SM SCT090
     FM280830 22010KT 6SM -SHRA OVC040
     FM281500 25020G30KT P6SM SCT040
     FM290200 19008KT P6SM SCT200=



000
FTUS45 KMSO 280531
TAFBTM
TAF
KBTM 280531Z 2806/2906 14005KT P6SM SKC
     FM281200 26010KT P6SM FEW080
     FM281600 28025G35KT P6SM BKN040
     FM290400 31010KT P6SM SKC=



000
FTUS45 KMSO 280531
TAFSMN
TAF
KSMN 280531Z 2806/2906 20005KT P6SM SKC
     FM281500 32015G25KT P6SM VCSH SCT050
     FM290300 18010KT P6SM SCT200
      AMD LTD TO CLD VIS AND WIND=



000
FTUS45 KMSO 280531
TAFGPI
TAF
KGPI 280531Z 2806/2906 VRB03KT P6SM SKC
     FM281000 22010KT 6SM -SHRA OVC040
     FM281500 25020G30KT P6SM SCT040
     FM290200 19008KT P6SM SCT200=



000
FTUS45 KMSO 280531
TAFMSO
TAF
KMSO 280531Z 2806/2906 VRB03KT P6SM SKC
     FM281100 28010KT 6SM -SHRA OVC040
     FM281500 28022G32KT P6SM SCT040
     FM290200 30010KT P6SM SCT200=



000
FTUS45 KMSO 280531
TAFGPI
TAF
KGPI 280531Z 2806/2906 VRB03KT P6SM SKC
     FM281000 22010KT 6SM -SHRA OVC040
     FM281500 25020G30KT P6SM SCT040
     FM290200 19008KT P6SM SCT200=



000
FTUS45 KMSO 280531
TAFMSO
TAF
KMSO 280531Z 2806/2906 VRB03KT P6SM SKC
     FM281100 28010KT 6SM -SHRA OVC040
     FM281500 28022G32KT P6SM SCT040
     FM290200 30010KT P6SM SCT200=



000
FTUS45 KMSO 280531
TAFBTM
TAF
KBTM 280531Z 2806/2906 14005KT P6SM SKC
     FM281200 26010KT P6SM FEW080
     FM281600 28025G35KT P6SM BKN040
     FM290400 31010KT P6SM SKC=



000
FTUS45 KMSO 280531
TAFSMN
TAF
KSMN 280531Z 2806/2906 20005KT P6SM SKC
     FM281500 32015G25KT P6SM VCSH SCT050
     FM290300 18010KT P6SM SCT200
      AMD LTD TO CLD VIS AND WIND=



000
FTUS45 KMSO 272320
TAFSMN
TAF
KSMN 272320Z 2800/2824 18005KT P6SM SKC
     FM281500 30012G22KT P6SM VCSH SCT020 OVC035
      AMD LTD TO CLD VIS AND WIND=



000
FTUS45 KMSO 272320
TAFMSO
TAF
KMSO 272320Z 2800/2824 28006KT P6SM FEW050
     FM281000 27010KT P6SM VCSH OVC050
     FM281400 26015G25KT P6SM -SHRA SCT030 OVC050=



000
FTUS45 KMSO 272320
TAFBTM
TAF
KBTM 272320Z 2800/2824 32012KT P6SM FEW200
     FM280200 20007KT P6SM SKC
     FM281600 28020G32KT P6SM VCSH BKN050=



000
FTUS45 KMSO 272320
TAFGPI
TAF
KGPI 272320Z 2800/2824 20008KT P6SM SCT100
     FM281000 24008KT P6SM VCSH OVC050
     FM281400 24015G25KT P6SM -SHRA SCT020 OVC035=



000
FTUS45 KMSO 272320
TAFBTM
TAF
KBTM 272320Z 2800/2824 32012KT P6SM FEW200
     FM280200 20007KT P6SM SKC
     FM281600 28020G32KT P6SM VCSH BKN050=



000
FTUS45 KMSO 272320
TAFMSO
TAF
KMSO 272320Z 2800/2824 28006KT P6SM FEW050
     FM281000 27010KT P6SM VCSH OVC050
     FM281400 26015G25KT P6SM -SHRA SCT030 OVC050=



000
FTUS45 KMSO 272320
TAFGPI
TAF
KGPI 272320Z 2800/2824 20008KT P6SM SCT100
     FM281000 24008KT P6SM VCSH OVC050
     FM281400 24015G25KT P6SM -SHRA SCT020 OVC035=



000
FTUS45 KMSO 272320
TAFSMN
TAF
KSMN 272320Z 2800/2824 18005KT P6SM SKC
     FM281500 30012G22KT P6SM VCSH SCT020 OVC035
      AMD LTD TO CLD VIS AND WIND=



000
FTUS45 KMSO 271720
TAFMSO
TAF
KMSO 271720Z 2718/2818 28006KT P6SM FEW050
     FM281000 27010KT P6SM VCSH OVC050
     FM281400 26015G25KT P6SM -SHRA SCT030 OVC050=



000
FTUS45 KMSO 271720
TAFGPI
TAF
KGPI 271720Z 2718/2818 20008KT P6SM SCT100
     FM281000 24008KT P6SM VCSH OVC050
     FM281400 24015G25KT P6SM -SHRA SCT020 OVC035=



000
FTUS45 KMSO 271720
TAFBTM
TAF
KBTM 271720Z 2718/2818 VRB05KT P6SM SCT200
     FM272000 28010G18KT P6SM FEW200
     FM280200 20007KT P6SM SKC
     FM281600 28020G32KT P6SM VCSH BKN050=



000
FTUS45 KMSO 271720
TAFSMN
TAF
KSMN 271720Z 2718/2818 18005KT P6SM SKC
     FM281500 30012G22KT P6SM VCSH SCT020 OVC035
      AMD LTD TO CLD VIS AND WIND=



000
FTUS45 KMSO 271509 AAC
TAFMSO
TAF AMD
KMSO 271509Z 2715/2812 00000KT 4SM BR SCT002
      TEMPO 2715/2716 1SM MIFG BKN002
     FM271700 28006KT P6SM FEW050
     FM281000 VRB05KT P6SM VCSH OVC050=



000
FTUS45 KMSO 271508 AAB
TAFGPI
TAF AMD
KGPI 271508Z 2715/2812 VRB03KT 4SM BR SCT001
      TEMPO 2715/2717 1/4SM FG SCT001 BKN003
     FM271800 VRB03KT P6SM BKN150
     FM272000 20008KT P6SM BKN100
     FM280800 VRB05KT P6SM VCSH OVC050=



000
FTUS45 KMSO 271324 AAA
TAFGPI
TAF AMD
KGPI 271324Z 2713/2812 VRB03KT 4SM BR SCT001
      TEMPO 2713/2715 2SM BR SCT001 BKN003
     FM271600 VRB03KT P6SM BKN150
     FM272000 20008KT P6SM BKN100
     FM280800 VRB05KT P6SM VCSH OVC050=



000
FTUS45 KMSO 271324 AAB
TAFMSO
TAF AMD
KMSO 271324Z 2713/2812 00000KT 4SM BR SCT002
      TEMPO 2713/2715 1SM MIFG SCT002
     FM271500 28006KT P6SM FEW050
     FM281000 VRB05KT P6SM VCSH OVC050=



000
FTUS45 KMSO 271126 RRA
TAFMSO
TAF
KMSO 271126Z 2711/2812 00000KT 4SM BR SCT002
      TEMPO 2712/2715 2SM BR SCT002
     FM271500 28006KT P6SM FEW050
     FM281000 VRB05KT P6SM VCSH OVC050=



000
FTUS45 KMSO 271120
TAFMSO
TAF
KMSO 271120Z 2712/2812 00000KT 2SM BR SCT002
     FM271500 28006KT P6SM FEW050
     FM281000 VRB05KT P6SM VCSH OVC050=



000
FTUS45 KMSO 271120
TAFGPI
TAF
KGPI 271120Z 2712/2812 VRB03KT 4SM BR SCT001
      TEMPO 2712/2715 2SM BR SCT001
     FM271500 VRB03KT P6SM BKN150
     FM272000 20008KT P6SM BKN100
     FM280800 VRB05KT P6SM VCSH OVC050=



000
FTUS45 KMSO 271120
TAFBTM
TAF
KBTM 271120Z 2712/2812 VRB05KT P6SM SCT200
     FM272000 28012G18KT P6SM FEW200
     FM280200 VRB05KT P6SM SKC=



000
FTUS45 KMSO 271120
TAFSMN
TAF
KSMN 271120Z 2712/2812 VRB06KT P6SM SKC
      AMD LTD TO CLD VIS AND WIND=



000
FTUS45 KMSO 271058 AAB
TAFMSO
TAF AMD
KMSO 271058Z 2711/2806 00000KT 2SM BR SCT002
     FM271500 30005KT P6SM FEW050=



000
FTUS45 KMSO 271058 AAB
TAFMSO
TAF AMD
KMSO 271058Z 2711/2806 00000KT 2SM BR SCT002
     FM271500 30005KT P6SM FEW050=



000
FTUS45 KMSO 270635 AAA
TAFGPI
TAF AMD
KGPI 270635Z 2707/2806 VRB03KT 2SM BR SCT001
      TEMPO 2707/2711 1/4SM FG OVC001
     FM271100 00000KT 1/4SM FG VV001
     FM271500 VRB03KT P6SM BKN150=



000
FTUS45 KMSO 270635 AAA
TAFGPI
TAF AMD
KGPI 270635Z 2707/2806 VRB03KT 2SM BR SCT001
      TEMPO 2707/2711 1/4SM FG OVC001
     FM271100 00000KT 1/4SM FG VV001
     FM271500 VRB03KT P6SM BKN150=



000
FTUS45 KMSO 270526
TAFGPI
TAF
KGPI 270526Z 2706/2806 VRB03KT 2SM BR SCT003
     FM271100 00000KT 1/2SM FG BKN003
     FM271500 VRB03KT P6SM BKN150=



000
FTUS45 KMSO 270526
TAFBTM
TAF
KBTM 270526Z 2706/2806 30005KT P6SM SCT200
     FM272000 28012G18KT P6SM FEW200
     FM280200 VRB05KT P6SM SKC=



000
FTUS45 KMSO 270526
TAFSMN
TAF
KSMN 270526Z 2706/2806 VRB06KT P6SM SKC
      AMD LTD TO CLD VIS AND WIND=



000
FTUS45 KMSO 270526
TAFMSO
TAF
KMSO 270526Z 2706/2806 VRB03KT P6SM SKC
     FM271200 00000KT P6SM VCFG FEW050
     FM271500 30005KT P6SM FEW050=



000
FTUS45 KMSO 270502 AAA
TAFGPI
TAF AMD
KGPI 270502Z 2705/2724 VRB03KT 2SM BR SCT003
     FM271100 00000KT 1/2SM FG BKN003
     FM271500 VRB03KT P6SM FEW050=



000
FTUS45 KMSO 270502 AAA
TAFGPI
TAF AMD
KGPI 270502Z 2705/2724 VRB03KT 2SM BR SCT003
     FM271100 00000KT 1/2SM FG BKN003
     FM271500 VRB03KT P6SM FEW050=



000
FTUS45 KMSO 262320
TAFMSO
TAF
KMSO 262320Z 2700/2724 30005KT P6SM BKN050
     FM271200 00000KT P6SM VCFG FEW050
     FM271500 30005KT P6SM FEW050=



000
FTUS45 KMSO 262320
TAFSMN
TAF
KSMN 262320Z 2700/2724 VRB03KT P6SM BKN070
      AMD LTD TO CLD VIS AND WIND=



000
FTUS45 KMSO 262320
TAFBTM
TAF
KBTM 262320Z 2700/2724 30015G25KT P6SM BKN050
     FM270100 31006KT P6SM FEW050
     FM272000 28012G18KT P6SM SCT200=



000
FTUS45 KMSO 262320
TAFGPI
TAF
KGPI 262320Z 2700/2724 VRB03KT P6SM OVC050
     FM271200 00000KT P6SM VCFG FEW050
     FM271500 VRB03KT P6SM FEW050=



000
FTUS45 KMSO 262320
TAFSMN
TAF
KSMN 262320Z 2700/2724 VRB03KT P6SM BKN070
      AMD LTD TO CLD VIS AND WIND=



000
FTUS45 KMSO 262320
TAFGPI
TAF
KGPI 262320Z 2700/2724 VRB03KT P6SM OVC050
     FM271200 00000KT P6SM VCFG FEW050
     FM271500 VRB03KT P6SM FEW050=



000
FTUS45 KMSO 262320
TAFMSO
TAF
KMSO 262320Z 2700/2724 30005KT P6SM BKN050
     FM271200 00000KT P6SM VCFG FEW050
     FM271500 30005KT P6SM FEW050=



000
FTUS45 KMSO 262320
TAFBTM
TAF
KBTM 262320Z 2700/2724 30015G25KT P6SM BKN050
     FM270100 31006KT P6SM FEW050
     FM272000 28012G18KT P6SM SCT200=



000
FTUS45 KMSO 262241 AAA
TAFBTM
TAF AMD
KBTM 262241Z 2623/2718 30015G25KT P6SM BKN050=



000
FTUS45 KMSO 262241 AAA
TAFBTM
TAF AMD
KBTM 262241Z 2623/2718 30015G25KT P6SM BKN050=



000
FTUS45 KMSO 261739
TAFMSO
TAF
KMSO 261739Z 2618/2718 30006KT P6SM BKN060=



000
FTUS45 KMSO 261739
TAFGPI
TAF
KGPI 261739Z 2618/2718 13003KT P6SM VCSH SCT003 BKN008 OVC035
      TEMPO 2618/2619 FEW008 BKN025
     FM261900 18005KT P6SM FEW030 BKN050=



000
FTUS45 KMSO 261739
TAFBTM
TAF
KBTM 261739Z 2618/2718 30008KT P6SM BKN060=



000
FTUS45 KMSO 261739
TAFMSO
TAF
KMSO 261739Z 2618/2718 30006KT P6SM BKN060=



000
FTUS45 KMSO 261739
TAFGPI
TAF
KGPI 261739Z 2618/2718 13003KT P6SM VCSH SCT003 BKN008 OVC035
      TEMPO 2618/2619 FEW008 BKN025
     FM261900 18005KT P6SM FEW030 BKN050=



000
FTUS45 KMSO 261739
TAFBTM
TAF
KBTM 261739Z 2618/2718 30008KT P6SM BKN060=



000
FTUS45 KMSO 261739
TAFSMN
TAF
KSMN 261739Z 2618/2718 VRB03KT P6SM SCT070
      AMD LTD TO CLD VIS AND WIND=



000
FTUS45 KMSO 261739
TAFSMN
TAF
KSMN 261739Z 2618/2718 VRB03KT P6SM SCT070
      AMD LTD TO CLD VIS AND WIND=



000
FTUS45 KMSO 261509 AAB
TAFGPI
TAF AMD
KGPI 261509Z 2615/2712 13003KT 5SM -SHRA BR SCT003 BKN008 OVC035
      TEMPO 2615/2618 1SM BR SCT002 BKN003 OVC015
     FM262000 18005KT P6SM FEW030 BKN050=



000
FTUS45 KMSO 261321 AAA
TAFGPI
TAF AMD
KGPI 261321Z 2613/2712 13003KT P6SM -SHRA FEW008 FEW015 OVC035
      TEMPO 2613/2617 5SM -RA BR SCT008 BKN015
     FM261700 18005KT P6SM VCSH FEW030 BKN050
     FM261900 19008KT P6SM BKN060=



000
FTUS45 KMSO 261321 AAA
TAFGPI
TAF AMD
KGPI 261321Z 2613/2712 13003KT P6SM -SHRA FEW008 FEW015 OVC035
      TEMPO 2613/2617 5SM -RA BR SCT008 BKN015
     FM261700 18005KT P6SM VCSH FEW030 BKN050
     FM261900 19008KT P6SM BKN060=



000
FTUS45 KMSO 261120
TAFBTM
TAF
KBTM 261120Z 2612/2712 33004KT P6SM VCSH FEW040 BKN050
     FM261800 30008KT P6SM BKN060=



000
FTUS45 KMSO 261120
TAFMSO
TAF
KMSO 261120Z 2612/2712 VRB03KT P6SM -SHRA OVC040
     FM261400 VRB03KT P6SM VCSH BKN050
     FM261800 30006KT P6SM BKN060=



000
FTUS45 KMSO 261120
TAFGPI
TAF
KGPI 261120Z 2612/2712 13003KT P6SM -SHRA FEW015 OVC035
     FM261500 18005KT P6SM VCSH FEW030 BKN050
     FM261900 19008KT P6SM BKN060=



000
FTUS45 KMSO 261120
TAFSMN
TAF
KSMN 261120Z 2612/2712 VRB03KT P6SM BKN060
     FM261800 VRB03KT P6SM SCT070
      AMD LTD TO CLD VIS AND WIND=



000
FTUS45 KMSO 260523
TAFMSO
TAF
KMSO 260523Z 2606/2706 VRB03KT P6SM -SHRA OVC040
     FM260900 VRB04KT P6SM -SHRA SCT020 OVC030
     FM261400 VRB03KT P6SM VCSH BKN040=



000
FTUS45 KMSO 260523
TAFBTM
TAF
KBTM 260523Z 2606/2706 33004KT P6SM BKN050
     FM260900 30005KT P6SM VCSH FEW025 BKN035=



000
FTUS45 KMSO 260523
TAFSMN
TAF
KSMN 260523Z 2606/2706 VRB03KT P6SM BKN060
      AMD LTD TO CLD VIS AND WIND=



000
FTUS45 KMSO 260523
TAFGPI
TAF
KGPI 260523Z 2606/2706 13003KT 6SM -RA OVC022
     FM260900 20004KT 5SM -RA BKN015 OVC020
     FM261500 21008KT P6SM VCSH FEW030 BKN050=



000
FTUS45 KMSO 260523
TAFMSO
TAF
KMSO 260523Z 2606/2706 VRB03KT P6SM -SHRA OVC040
     FM260900 VRB04KT P6SM -SHRA SCT020 OVC030
     FM261400 VRB03KT P6SM VCSH BKN040=



000
FTUS45 KMSO 260523
TAFSMN
TAF
KSMN 260523Z 2606/2706 VRB03KT P6SM BKN060
      AMD LTD TO CLD VIS AND WIND=



000
FTUS45 KMSO 260523
TAFGPI
TAF
KGPI 260523Z 2606/2706 13003KT 6SM -RA OVC022
     FM260900 20004KT 5SM -RA BKN015 OVC020
     FM261500 21008KT P6SM VCSH FEW030 BKN050=



000
FTUS45 KMSO 260523
TAFBTM
TAF
KBTM 260523Z 2606/2706 33004KT P6SM BKN050
     FM260900 30005KT P6SM VCSH FEW025 BKN035=



    US Dept of Commerce
    National Oceanic and Atmospheric Administration
    National Weather Service
    1325 East West Highway
    Silver Spring, MD 20910
    Page Author: NWS Internet Services Team
Disclaimer
Information Quality
Credits
Glossary
Privacy Policy
Freedom of Information Act (FOIA)
About Us
Career Opportunities